Time;durP1;ratioP1;P1;durP2;ratioP2;P2;SDS_P1;SDS_P2;PMS_P1;PMS_P2;Temp;Humidity;BMP_temperature;BMP_pressure;BME280_temperature;BME280_humidity;BME280_pressure;Samples;Min_cycle;Max_cycle;Signal;HPM_P1;HPM_P2
2021/07/31 04:00:39;;;;;;;7.83;1.90;;;18.40;99.90;;;;;;5902786;23;21129;-64
2021/07/31 04:03:06;;;;;;;2.73;1.70;;;18.30;99.90;;;;;;4994638;28;20488;-64
2021/07/31 04:05:33;;;;;;;2.83;1.83;;;18.30;99.90;;;;;;4994651;28;20458;-64
2021/07/31 04:07:59;;;;;;;2.87;2.07;;;18.30;99.90;;;;;;4994465;28;20857;-64
2021/07/31 04:10:26;;;;;;;3.47;2.00;;;18.30;99.90;;;;;;5001506;28;20458;-64
2021/07/31 04:12:53;;;;;;;3.63;1.80;;;18.30;99.90;;;;;;5004927;28;20450;-64
2021/07/31 04:15:19;;;;;;;2.10;1.90;;;18.20;99.90;;;;;;4997203;28;20457;-64
2021/07/31 04:17:47;;;;;;;3.13;2.00;;;18.30;99.90;;;;;;4994512;28;20458;-64
2021/07/31 04:20:14;;;;;;;2.63;1.80;;;18.30;99.90;;;;;;4994402;28;20462;-64
2021/07/31 04:22:41;;;;;;;7.40;2.20;;;18.30;99.90;;;;;;4994281;28;20477;-65
2021/07/31 04:25:09;;;;;;;2.37;1.90;;;18.20;99.90;;;;;;4994334;28;20457;-64
2021/07/31 04:27:36;;;;;;;5.37;1.67;;;18.30;99.90;;;;;;4994384;28;20457;-63
2021/07/31 04:30:03;;;;;;;6.53;1.97;;;18.30;99.90;;;;;;4994106;28;20954;-63
2021/07/31 04:32:30;;;;;;;3.33;2.30;;;18.30;99.90;;;;;;4994380;28;20473;-64
2021/07/31 04:34:58;;;;;;;2.30;2.07;;;18.20;99.90;;;;;;4994268;28;20468;-64
2021/07/31 04:37:25;;;;;;;2.50;1.80;;;18.20;99.90;;;;;;4994156;28;20460;-65
2021/07/31 04:39:51;;;;;;;3.60;1.47;;;18.20;99.90;;;;;;4994317;28;20457;-64
2021/07/31 04:42:18;;;;;;;5.03;2.07;;;18.20;99.90;;;;;;4994224;28;20485;-64
2021/07/31 04:44:45;;;;;;;4.07;2.00;;;18.20;99.90;;;;;;4994252;28;20465;-64
2021/07/31 04:47:11;;;;;;;4.80;1.73;;;18.20;99.90;;;;;;4994139;28;20457;-64
2021/07/31 04:49:38;;;;;;;3.03;2.00;;;18.30;99.90;;;;;;4994106;28;20466;-64
2021/07/31 04:52:08;;;;;;;3.10;1.80;;;18.30;99.90;;;;;;4994261;28;20477;-64
2021/07/31 04:54:39;;;;;;;2.10;1.83;;;18.20;99.90;;;;;;4996867;28;20473;-64
2021/07/31 04:57:06;;;;;;;8.37;2.17;;;18.20;99.90;;;;;;4998282;28;20456;-64
2021/07/31 04:59:32;;;;;;;4.10;2.47;;;18.20;99.90;;;;;;4998176;28;20458;-64
2021/07/31 05:01:59;;;;;;;4.20;2.33;;;18.30;99.90;;;;;;4997955;28;20494;-64
2021/07/31 05:04:26;;;;;;;3.73;3.00;;;18.30;99.90;;;;;;4998353;28;20493;-64
2021/07/31 05:06:53;;;;;;;4.33;2.57;;;18.40;99.90;;;;;;4998028;28;20829;-64
2021/07/31 05:09:22;;;;;;;3.87;2.03;;;18.40;99.90;;;;;;4997726;28;20981;-64
2021/07/31 05:11:48;;;;;;;5.07;2.13;;;18.50;99.90;;;;;;4997841;28;20474;-65
2021/07/31 05:14:15;;;;;;;4.70;2.10;;;18.50;99.90;;;;;;4998802;28;20783;-64
2021/07/31 05:16:42;;;;;;;4.60;2.20;;;18.40;99.90;;;;;;4997732;28;20790;-64
2021/07/31 05:19:09;;;;;;;2.10;2.00;;;18.40;99.90;;;;;;4997774;28;20477;-64
2021/07/31 05:21:36;;;;;;;7.47;2.37;;;18.40;99.90;;;;;;4997326;28;21010;-64
2021/07/31 05:24:03;;;;;;;3.53;2.07;;;18.40;99.90;;;;;;4998730;28;20477;-64
2021/07/31 05:26:31;;;;;;;4.50;2.50;;;18.40;99.90;;;;;;5000286;28;20457;-63
2021/07/31 05:28:58;;;;;;;2.43;2.27;;;18.40;99.90;;;;;;5001399;28;20464;-64
2021/07/31 05:31:25;;;;;;;5.57;2.57;;;18.50;99.90;;;;;;4999824;28;20524;-64
2021/07/31 05:33:52;;;;;;;3.50;2.20;;;18.70;99.90;;;;;;4997584;28;20457;-64
2021/07/31 05:36:18;;;;;;;3.00;2.40;;;18.90;99.90;;;;;;4997552;28;20552;-64
2021/07/31 05:38:45;;;;;;;4.23;2.30;;;19.20;99.90;;;;;;4997350;28;20516;-64
2021/07/31 05:41:16;;;;;;;5.27;1.90;;;19.50;99.90;;;;;;4997057;28;20478;-64
2021/07/31 05:43:44;;;;;;;5.13;2.00;;;19.70;99.90;;;;;;4997155;28;20496;-64
2021/07/31 05:46:11;;;;;;;7.90;2.20;;;19.90;99.90;;;;;;4997405;28;20458;-64
2021/07/31 05:48:38;;;;;;;3.30;2.13;;;20.10;99.90;;;;;;4997097;28;20481;-64
2021/07/31 05:51:05;;;;;;;5.63;2.13;;;20.20;99.90;;;;;;4997002;28;20477;-64
2021/07/31 05:53:31;;;;;;;3.67;2.50;;;20.50;99.90;;;;;;4997102;28;20460;-64
2021/07/31 05:55:59;;;;;;;3.70;2.20;;;20.60;99.90;;;;;;4996973;28;20453;-64
2021/07/31 05:58:26;;;;;;;4.07;2.00;;;20.80;99.90;;;;;;4997026;28;20960;-64
2021/07/31 06:00:54;;;;;;;2.60;2.00;;;20.90;99.90;;;;;;4996892;28;20504;-64
2021/07/31 06:03:21;;;;;;;4.30;2.20;;;21.00;99.90;;;;;;4997464;28;20481;-64
2021/07/31 06:05:48;;;;;;;4.70;2.50;;;20.90;99.90;;;;;;4996113;28;20457;-64
2021/07/31 06:08:14;;;;;;;5.90;3.10;;;20.90;99.90;;;;;;4996649;28;20458;-64
2021/07/31 06:10:41;;;;;;;10.57;2.03;;;21.10;99.90;;;;;;4996530;28;20485;-63
2021/07/31 06:13:08;;;;;;;3.27;1.93;;;21.20;99.90;;;;;;4996755;28;20461;-64
2021/07/31 06:15:34;;;;;;;5.20;2.20;;;21.30;99.90;;;;;;4996489;28;20464;-64
2021/07/31 06:18:02;;;;;;;4.03;2.10;;;21.40;99.90;;;;;;4996516;28;20809;-64
2021/07/31 06:20:29;;;;;;;2.17;1.90;;;21.50;99.90;;;;;;4996536;28;20477;-65
2021/07/31 06:22:56;;;;;;;3.80;2.30;;;21.70;99.90;;;;;;4996334;28;20477;-64
2021/07/31 06:25:22;;;;;;;6.80;1.63;;;21.90;99.90;;;;;;4996327;28;20516;-64
2021/07/31 06:27:49;;;;;;;2.40;1.90;;;22.10;99.90;;;;;;4996413;28;20464;-64
2021/07/31 06:30:16;;;;;;;2.83;1.90;;;22.30;99.90;;;;;;4996264;28;20457;-64
2021/07/31 06:32:42;;;;;;;3.23;2.13;;;22.60;99.90;;;;;;4996376;28;20453;-64
2021/07/31 06:35:11;;;;;;;4.13;2.20;;;22.90;99.90;;;;;;4996342;28;20457;-64
2021/07/31 06:37:37;;;;;;;2.53;1.90;;;23.00;99.90;;;;;;4995971;28;20951;-64
2021/07/31 06:40:05;;;;;;;2.43;2.10;;;23.30;99.90;;;;;;4996097;28;20461;-64
2021/07/31 06:42:32;;;;;;;2.10;1.60;;;23.60;99.90;;;;;;4996056;28;20481;-64
2021/07/31 06:44:58;;;;;;;7.83;1.80;;;24.00;99.90;;;;;;4995761;28;20854;-64
2021/07/31 06:47:25;;;;;;;3.67;1.90;;;24.50;99.90;;;;;;4996031;28;20461;-64
2021/07/31 06:49:52;;;;;;;3.40;1.80;;;24.90;99.90;;;;;;4996068;28;20450;-65
2021/07/31 06:52:20;;;;;;;6.80;2.10;;;25.20;98.80;;;;;;4996074;28;20474;-66
2021/07/31 06:54:46;;;;;;;2.17;1.60;;;25.50;97.90;;;;;;4996412;28;20461;-64
2021/07/31 06:57:13;;;;;;;2.50;1.60;;;25.70;97.10;;;;;;4996220;28;20450;-64
2021/07/31 06:59:40;;;;;;;3.07;1.87;;;26.20;97.50;;;;;;4995676;28;20453;-64
2021/07/31 07:02:07;;;;;;;4.07;2.03;;;26.60;97.00;;;;;;4995190;28;20487;-64
2021/07/31 07:04:33;;;;;;;3.03;1.70;;;27.20;95.00;;;;;;4995729;28;20481;-65
2021/07/31 07:07:00;;;;;;;3.17;2.10;;;27.50;91.90;;;;;;4995583;28;20454;-65
2021/07/31 07:09:28;;;;;;;4.23;1.80;;;28.10;91.60;;;;;;4995670;28;20449;-64
2021/07/31 07:11:56;;;;;;;4.23;2.07;;;28.60;90.00;;;;;;4995648;28;20532;-65
2021/07/31 07:14:23;;;;;;;1.80;1.50;;;28.70;88.20;;;;;;4995503;28;20445;-65
2021/07/31 07:16:50;;;;;;;4.37;1.77;;;29.00;86.50;;;;;;4994685;28;20458;-64
2021/07/31 07:19:16;;;;;;;4.33;1.90;;;29.40;85.10;;;;;;4995161;28;20465;-65
2021/07/31 07:21:43;;;;;;;2.87;1.63;;;29.90;81.80;;;;;;4995631;28;20473;-65
2021/07/31 07:24:10;;;;;;;2.37;1.63;;;30.10;81.70;;;;;;4995229;28;20477;-65
2021/07/31 07:26:38;;;;;;;3.90;1.60;;;30.40;76.10;;;;;;4995319;28;20461;-64
2021/07/31 07:29:05;;;;;;;3.87;1.50;;;30.90;75.60;;;;;;4995788;28;20489;-65
2021/07/31 07:31:32;;;;;;;2.10;1.47;;;31.00;72.50;;;;;;4994989;28;20986;-64
2021/07/31 07:33:59;;;;;;;4.50;1.93;;;31.20;68.20;;;;;;4995722;28;20931;-65
2021/07/31 07:36:26;;;;;;;2.77;1.80;;;31.00;70.20;;;;;;4995369;28;20453;-64
2021/07/31 07:38:52;;;;;;;3.07;2.23;;;31.00;69.50;;;;;;4995458;28;20461;-65
2021/07/31 07:41:19;;;;;;;7.77;1.73;;;30.70;68.40;;;;;;4994960;28;20481;-64
2021/07/31 07:43:47;;;;;;;2.70;1.90;;;30.50;72.00;;;;;;4994977;28;20477;-64
2021/07/31 07:46:15;;;;;;;3.23;1.90;;;30.50;68.80;;;;;;4994908;28;20457;-65
2021/07/31 07:48:41;;;;;;;3.50;2.30;;;30.20;69.30;;;;;;4995079;28;20489;-65
2021/07/31 07:51:08;;;;;;;4.80;1.60;;;30.10;68.70;;;;;;4995056;28;20481;-64
2021/07/31 07:53:35;;;;;;;1.67;1.57;;;30.30;73.20;;;;;;4995034;28;20454;-65
2021/07/31 07:56:02;;;;;;;2.70;1.50;;;30.70;66.60;;;;;;4994869;28;20946;-65
2021/07/31 07:58:28;;;;;;;2.93;1.80;;;30.70;66.00;;;;;;4995079;28;20512;-65
2021/07/31 08:00:56;;;;;;;2.17;1.60;;;30.70;64.80;;;;;;4994461;28;21021;-65
2021/07/31 08:03:23;;;;;;;7.00;2.17;;;30.90;65.40;;;;;;4994359;28;20477;-64
2021/07/31 08:05:50;;;;;;;3.63;2.10;;;30.80;64.70;;;;;;4994811;28;20487;-65
2021/07/31 08:08:16;;;;;;;2.77;1.70;;;31.40;65.50;;;;;;4994759;28;20462;-65
2021/07/31 08:10:43;;;;;;;5.20;1.70;;;31.50;66.50;;;;;;4994519;28;20481;-65
2021/07/31 08:13:10;;;;;;;2.67;1.80;;;31.20;66.40;;;;;;4994668;28;20446;-65
2021/07/31 08:15:36;;;;;;;4.07;1.90;;;30.90;64.00;;;;;;4994742;28;20461;-65
2021/07/31 08:18:04;;;;;;;3.53;1.90;;;30.50;71.20;;;;;;4994525;28;20458;-65
2021/07/31 08:20:31;;;;;;;4.53;2.13;;;30.40;66.00;;;;;;4994521;28;21010;-65
2021/07/31 08:22:58;;;;;;;5.43;2.13;;;30.10;71.50;;;;;;4994541;28;20462;-65
2021/07/31 08:25:25;;;;;;;2.27;2.07;;;30.20;67.60;;;;;;4994453;28;20834;-65
2021/07/31 08:27:52;;;;;;;3.00;1.60;;;30.40;69.30;;;;;;4994564;28;20466;-66
2021/07/31 08:30:18;;;;;;;2.00;1.80;;;31.10;64.90;;;;;;4993917;28;20453;-66
2021/07/31 08:32:45;;;;;;;1.87;1.70;;;30.90;65.90;;;;;;4994243;28;20453;-65
2021/07/31 08:35:13;;;;;;;2.20;1.90;;;30.40;67.30;;;;;;4994473;28;20474;-65
2021/07/31 08:37:40;;;;;;;3.30;1.87;;;30.00;68.20;;;;;;4994477;28;20470;-65
2021/07/31 08:40:09;;;;;;;2.20;2.00;;;29.30;70.10;;;;;;4997436;28;20457;-65
2021/07/31 08:42:36;;;;;;;2.47;1.67;;;28.60;73.00;;;;;;4997152;28;20549;-65
2021/07/31 08:45:05;;;;;;;3.90;1.73;;;28.20;74.40;;;;;;4994254;28;20478;-65
2021/07/31 08:47:33;;;;;;;3.07;1.80;;;27.90;76.00;;;;;;4996301;28;20453;-65
2021/07/31 08:50:00;;;;;;;3.43;1.93;;;27.90;76.80;;;;;;4998023;28;20450;-65
2021/07/31 08:52:31;;;;;;;3.87;2.10;;;28.20;71.20;;;;;;4998201;28;20466;-65
2021/07/31 08:54:58;;;;;;;2.20;2.00;;;28.40;70.90;;;;;;4997611;28;20787;-65
2021/07/31 08:57:25;;;;;;;4.50;1.80;;;28.30;72.20;;;;;;4997095;28;20446;-66
2021/07/31 08:59:53;;;;;;;3.77;1.70;;;28.50;69.80;;;;;;4995727;28;20454;-65
2021/07/31 09:02:20;;;;;;;7.13;1.80;;;28.60;70.10;;;;;;4994633;28;20492;-65
2021/07/31 09:04:48;;;;;;;3.90;1.83;;;29.20;70.10;;;;;;4994504;28;21017;-66
2021/07/31 09:07:15;;;;;;;2.37;1.57;;;30.10;70.70;;;;;;4995304;28;20457;-65
2021/07/31 09:09:43;;;;;;;2.20;1.73;;;31.10;66.70;;;;;;4994698;28;20461;-65
2021/07/31 09:12:11;;;;;;;2.23;1.80;;;32.00;63.50;;;;;;4994564;28;20470;-65
2021/07/31 09:14:45;;;;;;;3.60;2.47;;;31.90;60.10;;;;;;4995053;28;20454;-65
2021/07/31 09:17:24;;;;;;;5.17;1.77;;;31.40;60.10;;;;;;4994990;28;20464;-66
2021/07/31 09:19:51;;;;;;;3.20;1.70;;;31.00;63.40;;;;;;4997560;28;20438;-65
2021/07/31 09:22:17;;;;;;;2.87;1.90;;;30.90;66.50;;;;;;5001302;28;20478;-66
2021/07/31 09:25:05;;;;;;;4.73;2.00;;;31.10;65.10;;;;;;5002149;28;20484;-65
2021/07/31 09:27:32;;;;;;;3.10;1.60;;;30.60;63.70;;;;;;4999037;28;20460;-65
2021/07/31 09:30:02;;;;;;;2.53;1.50;;;30.50;69.50;;;;;;5000833;28;20460;-65
2021/07/31 09:32:38;;;;;;;6.50;1.63;;;30.30;65.80;;;;;;4999242;28;20478;-65
2021/07/31 09:35:20;;;;;;;4.60;1.70;;;30.00;67.20;;;;;;4998649;28;20430;-65
2021/07/31 09:37:48;;;;;;;2.90;1.53;;;29.40;67.10;;;;;;4999345;28;20478;-65
2021/07/31 09:40:28;;;;;;;4.00;1.80;;;29.60;71.10;;;;;;4999057;28;20461;-65
2021/07/31 09:42:55;;;;;;;2.30;1.93;;;29.60;65.70;;;;;;5002114;28;20445;-65
2021/07/31 09:45:33;;;;;;;1.93;1.40;;;29.50;66.80;;;;;;5002441;28;20484;-65
2021/07/31 09:48:01;;;;;;;2.10;1.73;;;29.40;68.70;;;;;;5001118;28;20480;-65
2021/07/31 09:50:39;;;;;;;3.33;1.80;;;29.10;67.10;;;;;;5002117;28;20453;-65
2021/07/31 09:53:10;;;;;;;5.30;1.60;;;28.90;69.00;;;;;;5001909;28;20458;-64
2021/07/31 09:55:44;;;;;;;3.13;1.77;;;28.80;68.80;;;;;;4998673;28;20457;-64
2021/07/31 09:58:14;;;;;;;4.40;1.57;;;29.20;69.40;;;;;;4997890;28;20933;-63
2021/07/31 10:00:41;;;;;;;4.77;1.83;;;29.30;66.10;;;;;;4997738;28;20489;-64
2021/07/31 10:03:10;;;;;;;2.20;1.43;;;29.40;67.20;;;;;;4997664;28;20453;-65
2021/07/31 10:05:39;;;;;;;4.03;2.30;;;30.30;67.50;;;;;;4997358;28;20509;-64
2021/07/31 10:08:06;;;;;;;2.93;1.93;;;31.50;65.10;;;;;;4998278;28;20489;-65
2021/07/31 10:10:33;;;;;;;2.57;1.83;;;32.70;61.20;;;;;;4996726;28;20974;-66
2021/07/31 10:13:01;;;;;;;3.20;1.80;;;33.20;58.80;;;;;;4997283;28;20460;-65
2021/07/31 10:15:28;;;;;;;1.80;1.70;;;33.40;56.70;;;;;;4996810;28;20942;-66
2021/07/31 10:17:55;;;;;;;3.20;2.07;;;33.40;58.50;;;;;;4996959;28;20492;-66
2021/07/31 10:20:26;;;;;;;3.43;1.57;;;34.20;57.70;;;;;;4997606;28;20476;-66
2021/07/31 10:22:53;;;;;;;2.63;1.57;;;34.70;57.30;;;;;;4997025;28;20453;-65
2021/07/31 10:25:20;;;;;;;240.87;73.73;;;35.20;54.10;;;;;;4996964;28;20497;-65
2021/07/31 10:27:48;;;;;;;7.97;3.00;;;35.50;55.70;;;;;;4996636;28;20456;-67
2021/07/31 10:30:29;;;;;;;6.37;2.10;;;35.60;54.20;;;;;;4996794;28;20457;-65
2021/07/31 10:32:56;;;;;;;2.83;1.87;;;35.50;52.10;;;;;;4996782;28;20445;-65
2021/07/31 10:35:37;;;;;;;1.67;1.57;;;35.40;50.00;;;;;;4996899;28;20454;-65
2021/07/31 10:38:07;;;;;;;2.83;1.70;;;35.50;50.80;;;;;;4996764;28;20540;-66
2021/07/31 10:40:44;;;;;;;1.73;1.63;;;35.30;49.80;;;;;;4996469;28;20473;-66
2021/07/31 10:43:12;;;;;;;2.37;1.97;;;34.60;51.80;;;;;;4996811;28;20437;-64
2021/07/31 10:45:40;;;;;;;4.10;2.10;;;34.50;50.90;;;;;;4995934;28;20477;-65
2021/07/31 10:48:35;;;;;;;2.43;2.03;;;34.90;52.80;;;;;;4995927;28;20453;-65
2021/07/31 10:51:03;;;;;;;3.00;2.00;;;35.00;51.90;;;;;;4995727;28;20557;-66
2021/07/31 10:53:48;;;;;;;2.00;1.80;;;35.50;51.70;;;;;;4995971;28;20516;-66
2021/07/31 10:56:15;;;;;;;2.80;1.93;;;35.50;49.80;;;;;;4995971;28;20465;-65
2021/07/31 10:59:13;;;;;;;3.60;1.87;;;34.70;50.80;;;;;;4995837;28;20453;-64
2021/07/31 11:01:41;;;;;;;2.73;1.90;;;34.00;52.70;;;;;;4995607;28;20493;-65
2021/07/31 11:04:08;;;;;;;2.70;1.90;;;33.70;53.40;;;;;;4995648;28;20519;-66
2021/07/31 11:07:09;;;;;;;2.50;1.70;;;33.80;53.00;;;;;;4995378;28;20453;-65
2021/07/31 11:09:36;;;;;;;1.77;1.60;;;33.70;54.80;;;;;;4995640;28;20434;-64
2021/07/31 11:12:36;;;;;;;8.07;1.97;;;33.80;54.80;;;;;;4995419;28;20469;-64
2021/07/31 11:15:07;;;;;;;7.10;2.80;;;33.90;55.30;;;;;;4995483;28;20857;-62
2021/07/31 11:17:38;;;;;;;4.17;1.70;;;33.60;53.80;;;;;;4995676;28;20907;-64
2021/07/31 11:20:24;;;;;;;1.63;1.53;;;33.30;54.30;;;;;;4995127;28;20476;-63
2021/07/31 11:22:50;;;;;;;4.10;1.90;;;33.30;54.70;;;;;;4995509;28;20859;-64
2021/07/31 11:25:20;;;;;;;3.33;2.07;;;32.90;55.50;;;;;;4995168;28;20487;-64
2021/07/31 11:27:54;;;;;;;3.37;2.03;;;33.00;56.10;;;;;;4995417;28;20457;-65
2021/07/31 11:30:21;;;;;;;2.27;1.60;;;32.60;52.20;;;;;;4995286;28;20441;-63
2021/07/31 11:32:49;;;;;;;2.03;1.80;;;32.10;52.10;;;;;;4995608;28;20457;-65
2021/07/31 11:35:26;;;;;;;2.83;2.10;;;32.10;55.90;;;;;;4995563;28;20446;-65
2021/07/31 11:37:53;;;;;;;2.67;2.10;;;32.20;56.40;;;;;;4995086;28;20803;-63
2021/07/31 11:40:19;;;;;;;2.20;1.80;;;32.10;56.00;;;;;;4994886;28;20506;-66
2021/07/31 11:42:46;;;;;;;2.10;2.00;;;32.10;56.90;;;;;;4994965;28;20461;-65
2021/07/31 11:45:13;;;;;;;6.77;2.30;;;31.90;58.40;;;;;;4994585;28;20890;-64
2021/07/31 11:47:41;;;;;;;3.27;2.00;;;31.60;56.50;;;;;;4996061;28;20465;-64
2021/07/31 11:50:10;;;;;;;3.80;2.10;;;31.60;56.80;;;;;;4995629;28;20453;-64
2021/07/31 11:52:37;;;;;;;10.10;1.90;;;31.20;56.90;;;;;;4996373;28;20486;-64
2021/07/31 11:55:08;;;;;;;2.80;2.10;;;31.00;60.30;;;;;;4995449;28;20502;-64
2021/07/31 11:57:35;;;;;;;2.10;2.00;;;31.10;57.70;;;;;;4996636;28;20444;-64
2021/07/31 12:00:02;;;;;;;2.00;1.63;;;30.50;56.90;;;;;;4995493;28;20462;-64
2021/07/31 12:02:36;;;;;;;1.87;1.77;;;30.20;61.30;;;;;;4994874;28;20486;-64
2021/07/31 12:05:05;;;;;;;1.80;1.70;;;30.30;59.00;;;;;;4995276;28;20481;-64
2021/07/31 12:07:33;;;;;;;5.20;2.00;;;30.30;58.70;;;;;;4996143;28;20450;-63
2021/07/31 12:10:01;;;;;;;1.77;1.67;;;30.40;60.80;;;;;;4994252;28;20462;-63
2021/07/31 12:12:29;;;;;;;2.97;1.97;;;30.40;59.90;;;;;;4994413;28;21020;-64
2021/07/31 12:15:13;;;;;;;2.37;1.80;;;30.60;60.30;;;;;;4994378;28;20827;-63
2021/07/31 12:17:45;;;;;;;2.43;2.03;;;30.40;58.10;;;;;;4994654;28;20458;-62
2021/07/31 12:20:12;;;;;;;2.70;1.97;;;30.30;59.00;;;;;;4994381;28;20788;-63
2021/07/31 12:22:52;;;;;;;2.40;2.07;;;30.20;61.30;;;;;;4994406;28;20480;-63
2021/07/31 12:25:20;;;;;;;5.60;1.90;;;30.30;62.50;;;;;;4994004;28;20465;-63
2021/07/31 12:27:56;;;;;;;4.83;1.97;;;30.50;61.00;;;;;;4994502;28;20477;-65
2021/07/31 12:30:28;;;;;;;1.50;1.27;;;30.70;60.10;;;;;;4994430;28;20444;-64
2021/07/31 12:32:56;;;;;;;2.80;1.80;;;30.70;59.20;;;;;;4999702;28;20493;-64
2021/07/31 12:35:34;;;;;;;2.20;1.67;;;30.70;57.70;;;;;;4999742;28;20438;-64
2021/07/31 12:38:03;;;;;;;1.60;1.50;;;30.50;58.00;;;;;;4997116;28;20449;-64
2021/07/31 12:40:29;;;;;;;3.23;1.80;;;30.40;58.70;;;;;;4994974;28;20453;-64
2021/07/31 12:42:56;;;;;;;3.80;1.70;;;30.20;58.50;;;;;;4995573;28;20947;-64
2021/07/31 12:45:25;;;;;;;3.43;1.73;;;30.00;59.40;;;;;;4996171;28;20473;-65
2021/07/31 12:47:52;;;;;;;3.80;2.07;;;29.80;59.30;;;;;;4996091;28;20457;-66
2021/07/31 12:50:19;;;;;;;3.40;2.03;;;29.50;57.80;;;;;;4995790;28;20454;-66
2021/07/31 12:52:45;;;;;;;6.27;1.93;;;29.70;61.10;;;;;;4996775;28;20454;-66
2021/07/31 12:55:14;;;;;;;2.10;1.60;;;29.70;59.10;;;;;;4995780;28;20480;-66
2021/07/31 12:57:40;;;;;;;1.90;1.80;;;29.50;59.20;;;;;;4994775;28;20998;-65
2021/07/31 13:00:08;;;;;;;2.43;2.03;;;29.20;59.50;;;;;;4994210;28;20970;-65
2021/07/31 13:02:35;;;;;;;2.00;1.87;;;28.90;60.80;;;;;;4994021;28;20489;-65
2021/07/31 13:05:01;;;;;;;3.57;2.00;;;28.80;60.30;;;;;;4994964;28;20482;-65
2021/07/31 13:07:28;;;;;;;2.53;1.80;;;28.70;60.40;;;;;;4996483;28;20449;-66
2021/07/31 13:09:55;;;;;;;2.10;1.90;;;28.60;61.30;;;;;;4995684;28;20461;-65
2021/07/31 13:12:23;;;;;;;4.53;2.40;;;28.70;61.80;;;;;;4995954;28;20473;-65
2021/07/31 13:14:49;;;;;;;3.50;1.90;;;28.80;61.30;;;;;;4997537;28;20810;-66
2021/07/31 13:17:16;;;;;;;5.57;2.00;;;29.00;59.70;;;;;;5000833;28;20454;-65
2021/07/31 13:19:43;;;;;;;2.20;2.00;;;29.00;61.70;;;;;;5000044;28;20457;-65
2021/07/31 13:22:10;;;;;;;3.30;2.03;;;28.90;61.10;;;;;;5000397;28;20469;-65
2021/07/31 13:24:37;;;;;;;4.30;1.60;;;29.00;61.60;;;;;;4998440;28;20453;-66
2021/07/31 13:27:04;;;;;;;3.20;2.10;;;29.20;61.60;;;;;;4998040;28;20458;-65
2021/07/31 13:29:32;;;;;;;4.30;1.80;;;29.10;62.30;;;;;;4997679;28;20482;-66
2021/07/31 13:32:00;;;;;;;2.70;1.80;;;29.40;63.00;;;;;;4997753;28;20473;-66
2021/07/31 13:34:26;;;;;;;6.07;2.00;;;29.50;61.50;;;;;;4997687;28;20457;-65
2021/07/31 13:36:58;;;;;;;2.07;1.90;;;29.70;62.70;;;;;;4997323;28;20457;-65
2021/07/31 13:39:25;;;;;;;3.70;1.97;;;29.70;59.90;;;;;;4997482;28;20445;-65
2021/07/31 13:41:53;;;;;;;3.03;1.80;;;29.50;59.90;;;;;;4997953;28;20477;-65
2021/07/31 13:44:21;;;;;;;3.30;2.03;;;29.30;61.80;;;;;;4997436;28;20457;-65
2021/07/31 13:46:49;;;;;;;4.20;1.57;;;29.10;62.50;;;;;;4997458;28;20478;-65
2021/07/31 13:49:16;;;;;;;4.20;2.47;;;28.80;61.80;;;;;;4997155;28;20963;-65
2021/07/31 13:51:43;;;;;;;2.30;2.10;;;28.40;63.70;;;;;;5002224;28;20813;-65
2021/07/31 13:54:09;;;;;;;2.37;1.60;;;28.50;65.30;;;;;;5005985;28;20480;-65
2021/07/31 13:56:36;;;;;;;1.80;1.70;;;28.50;63.20;;;;;;5004879;28;20457;-65
2021/07/31 13:59:04;;;;;;;3.03;2.53;;;28.40;63.10;;;;;;5005538;28;20986;-65
2021/07/31 14:01:32;;;;;;;2.27;1.87;;;28.50;66.00;;;;;;5005138;28;20853;-65
2021/07/31 14:04:01;;;;;;;2.77;2.07;;;28.70;65.70;;;;;;5005703;28;20458;-65
2021/07/31 14:06:27;;;;;;;2.97;1.87;;;28.80;64.00;;;;;;5005277;28;20481;-65
2021/07/31 14:08:54;;;;;;;2.00;1.90;;;28.90;62.60;;;;;;5005936;28;20458;-65
2021/07/31 14:11:21;;;;;;;1.80;1.70;;;28.80;61.40;;;;;;5004609;28;20481;-65
2021/07/31 14:13:48;;;;;;;2.47;1.83;;;28.70;63.00;;;;;;5001262;28;20458;-66
2021/07/31 14:16:14;;;;;;;2.23;1.97;;;28.60;62.30;;;;;;4998729;28;20454;-64
2021/07/31 14:18:41;;;;;;;2.97;1.67;;;28.20;62.00;;;;;;5000048;28;20457;-64
2021/07/31 14:21:10;;;;;;;2.50;2.00;;;28.20;63.90;;;;;;4998829;28;20477;-64
2021/07/31 14:23:37;;;;;;;3.87;1.63;;;28.10;63.90;;;;;;4997954;28;20457;-65
2021/07/31 14:26:09;;;;;;;4.50;2.40;;;28.20;64.30;;;;;;4996484;28;20838;-65
2021/07/31 14:28:37;;;;;;;2.70;2.03;;;28.20;62.90;;;;;;4997438;28;20477;-65
2021/07/31 14:31:04;;;;;;;4.43;1.90;;;28.20;64.00;;;;;;4997650;28;20512;-65
2021/07/31 14:33:30;;;;;;;6.67;1.90;;;28.20;67.80;;;;;;4997866;28;20453;-65
2021/07/31 14:35:57;;;;;;;2.83;1.70;;;28.30;61.80;;;;;;4996721;28;20457;-65
2021/07/31 14:38:25;;;;;;;3.73;2.57;;;28.30;63.10;;;;;;4996115;28;20508;-64
2021/07/31 14:40:52;;;;;;;4.60;2.20;;;28.30;63.80;;;;;;4996424;28;20478;-65
2021/07/31 14:43:19;;;;;;;1.80;1.70;;;28.20;63.30;;;;;;4996447;28;20460;-65
2021/07/31 14:45:45;;;;;;;2.80;2.10;;;28.30;64.80;;;;;;4996474;28;20482;-65
2021/07/31 14:48:14;;;;;;;3.40;2.00;;;28.10;63.50;;;;;;4996815;28;20465;-65
2021/07/31 14:50:42;;;;;;;2.60;1.80;;;27.90;62.80;;;;;;4996549;28;20477;-65
2021/07/31 14:53:09;;;;;;;2.10;1.80;;;27.90;64.30;;;;;;4996531;28;20461;-65
2021/07/31 14:55:39;;;;;;;2.30;1.83;;;27.90;64.70;;;;;;4996389;28;20508;-66
2021/07/31 14:58:05;;;;;;;3.10;1.93;;;27.90;66.60;;;;;;4996350;28;20865;-64
2021/07/31 15:00:32;;;;;;;4.60;2.53;;;27.80;63.40;;;;;;4996850;28;20477;-66
2021/07/31 15:02:59;;;;;;;1.80;1.60;;;27.70;64.50;;;;;;4996822;28;20438;-65
2021/07/31 15:05:26;;;;;;;3.40;1.87;;;27.80;64.40;;;;;;4996481;28;20485;-65
2021/07/31 15:07:52;;;;;;;2.77;1.57;;;27.60;62.80;;;;;;4996201;28;20465;-64
2021/07/31 15:10:19;;;;;;;2.77;2.10;;;27.50;64.10;;;;;;4996074;28;20454;-65
2021/07/31 15:12:47;;;;;;;1.97;1.83;;;27.40;63.00;;;;;;4996244;28;20454;-65
2021/07/31 15:15:14;;;;;;;3.17;2.17;;;27.40;65.70;;;;;;4995950;28;20441;-65
2021/07/31 15:17:40;;;;;;;2.97;2.17;;;27.50;65.90;;;;;;4996366;28;20450;-65
2021/07/31 15:20:08;;;;;;;4.63;2.10;;;27.60;64.50;;;;;;4995774;28;20452;-65
2021/07/31 15:22:37;;;;;;;2.17;1.73;;;27.50;66.50;;;;;;4995964;28;20470;-65
2021/07/31 15:25:04;;;;;;;3.27;1.80;;;27.60;64.20;;;;;;4995705;28;20450;-64
2021/07/31 15:27:31;;;;;;;2.00;1.80;;;27.50;66.10;;;;;;4995972;28;20461;-65
2021/07/31 15:29:59;;;;;;;2.27;1.90;;;27.40;66.20;;;;;;4995755;28;20460;-66
2021/07/31 15:32:26;;;;;;;3.43;1.90;;;27.50;65.20;;;;;;4995677;28;20478;-66
2021/07/31 15:34:53;;;;;;;3.20;1.80;;;27.60;66.80;;;;;;4996103;28;20461;-66
2021/07/31 15:37:19;;;;;;;10.70;2.27;;;27.60;63.30;;;;;;4995542;28;20456;-66
2021/07/31 15:39:46;;;;;;;2.30;2.00;;;27.70;64.10;;;;;;4994991;28;20568;-66
2021/07/31 15:42:13;;;;;;;6.43;2.40;;;27.90;65.70;;;;;;4996213;28;20474;-66
2021/07/31 15:44:39;;;;;;;4.07;2.03;;;28.10;67.60;;;;;;4995614;28;20458;-66
2021/07/31 15:47:08;;;;;;;2.60;2.13;;;28.20;65.70;;;;;;4994993;28;20469;-66
2021/07/31 15:49:36;;;;;;;7.27;3.07;;;28.30;64.40;;;;;;4995309;28;20457;-66
2021/07/31 15:52:03;;;;;;;2.83;2.30;;;28.10;64.50;;;;;;4995259;28;20532;-65
2021/07/31 15:54:29;;;;;;;3.87;2.43;;;28.00;65.50;;;;;;4995439;28;20462;-65
2021/07/31 15:56:56;;;;;;;2.47;2.27;;;27.90;66.90;;;;;;4995699;28;20445;-65
2021/07/31 15:59:23;;;;;;;4.07;2.03;;;27.80;64.40;;;;;;4995445;28;20453;-64
2021/07/31 16:01:49;;;;;;;2.23;2.00;;;27.70;63.70;;;;;;4995199;28;20517;-66
2021/07/31 16:04:17;;;;;;;3.73;2.10;;;27.70;65.30;;;;;;4995186;28;20458;-65
2021/07/31 16:06:45;;;;;;;6.63;2.10;;;27.60;65.10;;;;;;4995228;28;20473;-64
2021/07/31 16:09:11;;;;;;;3.80;2.17;;;27.50;65.40;;;;;;4994917;28;20476;-65
2021/07/31 16:11:38;;;;;;;2.93;2.17;;;27.20;66.60;;;;;;4995034;28;20484;-65
2021/07/31 16:14:05;;;;;;;2.73;2.23;;;26.90;66.10;;;;;;4995078;28;20454;-65
2021/07/31 16:16:32;;;;;;;3.43;2.37;;;26.70;66.70;;;;;;4994779;28;20509;-66
2021/07/31 16:18:59;;;;;;;9.07;2.10;;;26.70;67.60;;;;;;4994809;28;20943;-66
2021/07/31 16:21:30;;;;;;;2.13;2.00;;;26.60;67.30;;;;;;4995661;28;20480;-65
2021/07/31 16:23:57;;;;;;;2.13;2.00;;;26.50;68.50;;;;;;4996721;28;20465;-65
2021/07/31 16:26:26;;;;;;;3.60;2.23;;;26.50;68.00;;;;;;4994791;28;20508;-65
2021/07/31 16:28:52;;;;;;;1.80;1.70;;;26.40;68.10;;;;;;4996686;28;20454;-65
2021/07/31 16:31:19;;;;;;;5.20;2.13;;;26.40;68.40;;;;;;4996406;28;20477;-65
2021/07/31 16:33:46;;;;;;;2.17;1.97;;;26.20;69.10;;;;;;4997157;28;20453;-67
2021/07/31 16:36:13;;;;;;;3.10;2.13;;;26.30;68.70;;;;;;4996037;28;20456;-64
2021/07/31 16:38:41;;;;;;;2.13;2.00;;;26.30;68.80;;;;;;4997161;28;20512;-66
2021/07/31 16:41:07;;;;;;;6.40;2.63;;;26.10;69.70;;;;;;4994707;28;20469;-66
2021/07/31 16:43:34;;;;;;;2.97;2.70;;;26.10;69.90;;;;;;4995050;28;20465;-65
2021/07/31 16:46:01;;;;;;;5.00;3.10;;;26.00;69.70;;;;;;4994653;28;20477;-66
2021/07/31 16:48:28;;;;;;;2.30;2.10;;;25.90;69.60;;;;;;4994409;28;20458;-65
2021/07/31 16:50:54;;;;;;;2.27;2.00;;;25.70;69.70;;;;;;4997586;28;20524;-66